Search for airport 
image banner adimage banner adimage banner ad
image banner ad

CA22 - Lauppes Strip

Located in Sacramento, United States

ICAO - CA22, IATA -

Data provided by Airmate  

General information

Coordinates: N38°45'34" W121°35'7"
Elevation is 23 feet MSL.
Magnetic variation is 16° East
View others Airports in California

Operational data

Special qualification required
Current time UTC:
Current local time:
Weather at : KSMF - Sacramento Intl ( 7 km )
METAR: KSMF 270453Z 17013KT 10SM SCT190 23/05 A2989 RMK AO2 SLP120 T02330050
TAF: KSMF 270218Z 2702/2724 20015KT P6SM SCT200 FM270400 16012KT P6SM OVC150 FM270700 15010KT P6SM VCSH OVC150 FM271300 17004KT P6SM OVC100 FM272000 32007KT P6SM SCT200
View NOTAMs / SUP AIP / TFR affecting this airport [VIEW]
Communications frequencies: [VIEW]

Runways:

RWY identifierQFULength (ft)Width (ft)SurfaceLDA (ft)
15200030EARTH
33200030EARTH

Airport contact information

Address: Sacramento United States

Satellite view of CA22